Time;durP1;ratioP1;P1;durP2;ratioP2;P2;SDS_P1;SDS_P2;PMS_P1;PMS_P2;Temp;Humidity;BMP_temperature;BMP_pressure;BME280_temperature;BME280_humidity;BME280_pressure;Samples;Min_cycle;Max_cycle;Signal;HPM_P1;HPM_P2
2021/10/18 00:02:25;;;;;;;38.00;23.10;;;;;;;4.62;100.00;100897.25;5134764;27;20047;-84
2021/10/18 00:04:53;;;;;;;38.65;22.85;;;;;;;4.60;100.00;100899.94;5134872;27;20058;-84
2021/10/18 00:07:22;;;;;;;41.00;24.02;;;;;;;4.63;100.00;100899.00;5134691;27;20067;-84
2021/10/18 00:09:50;;;;;;;44.38;23.88;;;;;;;4.63;100.00;100899.00;5134288;27;20095;-84
2021/10/18 00:12:19;;;;;;;44.53;23.67;;;;;;;4.75;100.00;100894.28;5134753;27;20051;-83
2021/10/18 00:14:47;;;;;;;44.70;23.25;;;;;;;4.79;100.00;100906.50;5134319;27;20045;-83
2021/10/18 00:17:17;;;;;;;40.97;23.45;;;;;;;4.81;100.00;100894.09;5134816;27;20039;-82
2021/10/18 00:19:45;;;;;;;45.20;23.17;;;;;;;4.89;100.00;100904.47;5134176;27;20096;-79
2021/10/18 00:22:13;;;;;;;40.28;23.92;;;;;;;4.92;100.00;100907.03;5134532;27;20051;-79
2021/10/18 00:24:41;;;;;;;42.33;23.38;;;;;;;4.98;100.00;100895.44;5134354;27;20142;-79
2021/10/18 00:27:10;;;;;;;44.45;24.27;;;;;;;4.95;100.00;100896.41;5134505;27;20046;-83
2021/10/18 00:29:38;;;;;;;42.70;23.05;;;;;;;4.97;100.00;100899.88;5134052;27;20046;-79
2021/10/18 00:32:07;;;;;;;42.88;24.38;;;;;;;4.94;100.00;100899.97;5134484;27;20056;-79
2021/10/18 00:34:36;;;;;;;39.33;22.95;;;;;;;5.21;100.00;100887.75;5134004;27;20413;-80
2021/10/18 00:37:05;;;;;;;41.47;23.60;;;;;;;5.27;100.00;100895.50;5134393;27;20071;-78
2021/10/18 00:39:33;;;;;;;44.92;24.33;;;;;;;5.19;100.00;100897.50;5133708;27;20079;-79
2021/10/18 00:42:01;;;;;;;43.78;22.70;;;;;;;5.40;100.00;100890.72;5134006;27;20096;-81
2021/10/18 00:44:30;;;;;;;40.15;22.90;;;;;;;5.58;100.00;100898.13;5133854;27;20035;-81
2021/10/18 00:46:59;;;;;;;42.90;23.50;;;;;;;5.57;100.00;100896.41;5133887;27;20035;-81
2021/10/18 00:49:29;;;;;;;48.00;24.23;;;;;;;5.50;100.00;100904.56;5132960;27;20150;-79
2021/10/18 00:51:59;;;;;;;42.10;23.77;;;;;;;5.57;100.00;100896.41;5133677;27;20576;-79
2021/10/18 00:54:28;;;;;;;39.55;22.95;;;;;;;5.52;100.00;100898.34;5133831;27;20122;-80
2021/10/18 00:56:56;;;;;;;42.22;23.67;;;;;;;5.41;100.00;100895.13;5133546;27;20035;-82
2021/10/18 00:59:24;;;;;;;40.25;22.33;;;;;;;5.53;100.00;100893.91;5133720;27;20055;-81
2021/10/18 01:01:53;;;;;;;37.50;22.77;;;;;;;5.57;100.00;100896.41;5133491;27;20046;-82
2021/10/18 01:04:23;;;;;;;40.65;23.45;;;;;;;5.54;100.00;100899.16;5133390;27;20381;-82
2021/10/18 01:06:52;;;;;;;41.30;22.08;;;;;;;5.58;100.00;100890.19;5133118;27;20049;-82
2021/10/18 01:09:24;;;;;;;39.88;22.33;;;;;;;5.86;100.00;100897.31;5133639;27;20039;-82
2021/10/18 01:11:52;;;;;;;41.20;23.35;;;;;;;5.63;100.00;100890.94;5133134;27;20494;-82
2021/10/18 01:14:20;;;;;;;40.78;22.40;;;;;;;5.51;100.00;100893.94;5133675;27;20387;-81
2021/10/18 01:16:51;;;;;;;37.80;21.75;;;;;;;5.52;100.00;100894.81;5133087;27;20395;-76
2021/10/18 01:19:21;;;;;;;37.60;22.38;;;;;;;5.67;100.00;100889.91;5133466;27;20043;-78
2021/10/18 01:21:56;;;;;;;37.33;22.88;;;;;;;5.71;100.00;100893.38;5133094;27;20133;-77
2021/10/18 01:24:25;;;;;;;38.28;23.27;;;;;;;5.59;100.00;100894.56;5133266;27;20043;-77
2021/10/18 01:26:54;;;;;;;40.45;21.90;;;;;;;5.54;100.00;100893.00;5133231;27;20083;-78
2021/10/18 01:29:22;;;;;;;42.10;23.65;;;;;;;5.59;100.00;100889.28;5133467;27;20495;-76
2021/10/18 01:31:52;;;;;;;42.10;23.65;;;;;;;5.58;100.00;100882.25;5132714;27;20125;-76
2021/10/18 01:34:20;;;;;;;44.58;23.20;;;;;;;5.62;100.00;100894.50;5133525;27;20545;-76
2021/10/18 01:36:49;;;;;;;42.35;23.23;;;;;;;5.63;100.00;100893.59;5132807;27;20050;-76
2021/10/18 01:39:20;;;;;;;44.22;23.20;;;;;;;5.68;100.00;100889.00;5133478;27;20459;-80
2021/10/18 01:41:49;;;;;;;42.17;22.83;;;;;;;5.66;100.00;100889.97;5133090;27;20476;-85
2021/10/18 01:44:18;;;;;;;41.75;22.50;;;;;;;5.67;100.00;100886.41;5133358;27;20039;-85
2021/10/18 01:46:47;;;;;;;41.45;24.02;;;;;;;5.70;100.00;100886.34;5133267;28;20130;-87
2021/10/18 01:49:16;;;;;;;38.53;22.45;;;;;;;5.71;100.00;100882.78;5137763;27;20071;-86
2021/10/18 01:51:45;;;;;;;42.08;23.63;;;;;;;5.87;100.00;100883.16;5140007;27;20043;-85
2021/10/18 01:54:13;;;;;;;40.78;23.27;;;;;;;5.96;100.00;100880.25;5140154;27;20046;-87
2021/10/18 01:56:43;;;;;;;40.08;23.95;;;;;;;5.94;100.00;100880.31;5139822;27;20111;-78
2021/10/18 01:59:11;;;;;;;43.60;24.00;;;;;;;5.88;100.00;100884.88;5139871;27;20035;-79
2021/10/18 02:01:39;;;;;;;38.45;23.20;;;;;;;5.86;100.00;100892.00;5139493;27;20046;-79
2021/10/18 02:04:08;;;;;;;43.05;23.17;;;;;;;5.92;100.00;100882.16;5138584;27;20061;-78
2021/10/18 02:06:36;;;;;;;43.45;23.20;;;;;;;5.86;100.00;100887.59;5139563;27;20047;-80
2021/10/18 02:09:05;;;;;;;38.72;21.83;;;;;;;6.23;100.00;100879.38;5139893;27;20454;-79
2021/10/18 02:11:33;;;;;;;40.47;22.13;;;;;;;6.07;100.00;100875.47;5139961;27;20047;-75
2021/10/18 02:14:03;;;;;;;40.92;23.92;;;;;;;5.91;100.00;100884.84;5140031;27;20053;-75
2021/10/18 02:16:31;;;;;;;42.10;23.38;;;;;;;5.93;100.00;100883.00;5139610;27;20042;-75
2021/10/18 02:18:59;;;;;;;37.80;22.25;;;;;;;6.03;100.00;100884.44;5139538;27;20042;-75
2021/10/18 02:21:28;;;;;;;39.60;22.27;;;;;;;6.12;100.00;100885.94;5139602;27;20401;-74
2021/10/18 02:23:56;;;;;;;41.55;22.50;;;;;;;6.13;100.00;100890.31;5139180;27;20051;-76
2021/10/18 02:26:24;;;;;;;38.83;22.30;;;;;;;6.01;100.00;100888.94;5139797;27;20046;-74
2021/10/18 02:28:52;;;;;;;40.60;23.17;;;;;;;6.06;100.00;100889.66;5139278;27;20040;-75
2021/10/18 02:31:22;;;;;;;39.97;22.63;;;;;;;5.99;100.00;100888.13;5138251;27;20066;-75
2021/10/18 02:33:50;;;;;;;35.17;22.20;;;;;;;6.06;100.00;100879.06;5139375;27;20110;-75
2021/10/18 02:36:18;;;;;;;39.13;22.40;;;;;;;5.95;100.00;100881.16;5139885;27;20043;-75
2021/10/18 02:38:47;;;;;;;36.85;21.30;;;;;;;5.82;100.00;100885.09;5139237;27;20047;-76
2021/10/18 02:41:15;;;;;;;39.25;20.85;;;;;;;5.73;100.00;100887.09;5139510;27;20046;-76
2021/10/18 02:43:47;;;;;;;36.22;20.73;;;;;;;5.82;100.00;100887.75;5139152;27;20072;-76
2021/10/18 02:46:15;;;;;;;35.03;20.17;;;;;;;5.81;100.00;100892.16;5140164;27;20092;-76
2021/10/18 02:48:45;;;;;;;35.00;20.95;;;;;;;5.79;100.00;100893.09;5139271;27;20042;-74
2021/10/18 02:51:13;;;;;;;37.17;20.92;;;;;;;5.81;100.00;100884.22;5139377;27;20484;-73
2021/10/18 02:53:41;;;;;;;36.10;21.05;;;;;;;5.88;100.00;100895.47;5139060;27;20045;-73
2021/10/18 02:56:11;;;;;;;38.20;21.73;;;;;;;5.85;100.00;100890.28;5139355;27;20049;-72
2021/10/18 02:58:40;;;;;;;35.53;20.80;;;;;;;5.86;100.00;100881.41;5139291;27;20066;-76
2021/10/18 03:01:08;;;;;;;35.97;20.40;;;;;;;5.87;100.00;100888.44;5135443;27;20037;-75
2021/10/18 03:03:37;;;;;;;38.97;20.30;;;;;;;5.86;100.00;100884.94;5136055;27;20058;-73
2021/10/18 03:06:07;;;;;;;37.22;21.60;;;;;;;5.87;100.00;100878.72;5136249;27;20043;-79
2021/10/18 03:08:35;;;;;;;42.13;21.92;;;;;;;5.90;100.00;100885.72;5136040;27;20043;-78
2021/10/18 03:11:03;;;;;;;37.17;21.00;;;;;;;5.89;100.00;100884.00;5135828;27;20047;-78
2021/10/18 03:13:34;;;;;;;38.88;21.63;;;;;;;5.90;100.00;100880.44;5136181;27;20039;-78
2021/10/18 03:16:02;;;;;;;35.13;20.42;;;;;;;5.94;100.00;100887.38;5135821;27;20086;-78
2021/10/18 03:18:31;;;;;;;38.95;22.08;;;;;;;5.96;100.00;100891.72;5136094;27;20054;-78
2021/10/18 03:21:01;;;;;;;40.90;21.25;;;;;;;5.93;100.00;100888.31;5135427;27;20043;-78
2021/10/18 03:23:31;;;;;;;39.92;22.25;;;;;;;5.93;100.00;100889.16;5135923;27;20039;-83
2021/10/18 03:25:59;;;;;;;34.13;21.10;;;;;;;6.00;100.00;100887.22;5135430;27;20118;-84
2021/10/18 03:28:28;;;;;;;33.92;19.80;;;;;;;6.07;100.00;100879.91;5135431;27;20047;-84
2021/10/18 03:30:56;;;;;;;33.33;19.83;;;;;;;6.11;100.00;100889.53;5134915;27;20043;-83
2021/10/18 03:33:25;;;;;;;32.92;19.08;;;;;;;6.14;100.00;100892.06;5135398;27;20161;-78
2021/10/18 03:35:53;;;;;;;32.00;18.13;;;;;;;6.36;100.00;100885.13;5134956;27;20400;-78
2021/10/18 03:38:21;;;;;;;30.77;18.73;;;;;;;6.57;100.00;100881.81;5135596;27;20421;-78
2021/10/18 03:40:51;;;;;;;31.48;19.63;;;;;;;6.61;100.00;100893.16;5134991;27;20042;-78
2021/10/18 03:43:19;;;;;;;36.85;20.17;;;;;;;6.38;100.00;100895.72;5135395;27;20411;-78
2021/10/18 03:45:48;;;;;;;37.47;19.90;;;;;;;6.35;100.00;100894.00;5134950;27;20043;-78
2021/10/18 03:48:16;;;;;;;35.80;20.33;;;;;;;6.31;100.00;100895.03;5133872;27;20050;-78
2021/10/18 03:50:44;;;;;;;33.85;19.17;;;;;;;6.46;100.00;100893.66;5135104;27;20050;-78
2021/10/18 03:53:13;;;;;;;32.33;19.63;;;;;;;6.36;100.00;100892.22;5135298;27;20046;-76
2021/10/18 03:55:41;;;;;;;38.90;20.98;;;;;;;6.29;100.00;100905.69;5134903;27;20066;-76
2021/10/18 03:58:10;;;;;;;35.72;20.25;;;;;;;6.25;100.00;100895.22;5134862;27;20043;-76
2021/10/18 04:00:39;;;;;;;33.90;19.33;;;;;;;6.38;100.00;100895.72;5134818;27;20039;-76
2021/10/18 04:03:07;;;;;;;35.28;20.13;;;;;;;6.46;100.00;100896.31;5134810;27;20391;-76
2021/10/18 04:05:36;;;;;;;34.20;19.75;;;;;;;6.39;100.00;100897.44;5134778;27;20483;-76
2021/10/18 04:08:04;;;;;;;34.55;19.42;;;;;;;6.33;100.00;100898.50;5134748;27;20043;-78
2021/10/18 04:10:33;;;;;;;34.78;19.17;;;;;;;6.45;100.00;100898.09;5134889;27;20462;-78
2021/10/18 04:13:01;;;;;;;31.70;18.92;;;;;;;6.50;100.00;100901.47;5134047;27;20070;-75
2021/10/18 04:15:31;;;;;;;33.67;19.42;;;;;;;6.53;100.00;100903.16;5134487;27;20130;-74
2021/10/18 04:17:59;;;;;;;31.02;19.08;;;;;;;6.55;100.00;100898.66;5134038;27;20111;-75
2021/10/18 04:20:28;;;;;;;34.70;20.50;;;;;;;6.44;100.00;100895.50;5134667;27;20043;-74
2021/10/18 04:22:56;;;;;;;40.83;21.38;;;;;;;6.31;100.00;100895.91;5134037;27;20058;-74
2021/10/18 04:25:24;;;;;;;39.08;20.73;;;;;;;6.26;100.00;100897.81;5134359;27;20487;-77
2021/10/18 04:27:52;;;;;;;33.15;20.95;;;;;;;6.24;100.00;100896.16;5133934;27;20042;-77
2021/10/18 04:30:20;;;;;;;40.03;22.02;;;;;;;6.26;100.00;100902.25;5134409;27;20084;-77
2021/10/18 04:32:50;;;;;;;38.40;21.90;;;;;;;6.27;100.00;100899.59;5132470;27;20051;-78
2021/10/18 04:35:18;;;;;;;38.85;21.20;;;;;;;6.28;100.00;100901.31;5134109;27;20046;-77
2021/10/18 04:37:47;;;;;;;35.65;21.40;;;;;;;6.28;100.00;100900.44;5133871;27;20053;-79
2021/10/18 04:40:16;;;;;;;37.20;21.65;;;;;;;6.33;100.00;100901.16;5133958;27;20122;-78
2021/10/18 04:42:45;;;;;;;36.30;20.08;;;;;;;6.54;100.00;100908.38;5134002;27;20043;-77
2021/10/18 04:45:14;;;;;;;35.53;21.38;;;;;;;6.60;100.00;100902.91;5133849;27;20039;-77
2021/10/18 04:47:43;;;;;;;35.95;21.20;;;;;;;6.54;100.00;100912.81;5134028;27;20047;-78
2021/10/18 04:50:13;;;;;;;35.92;21.98;;;;;;;6.51;100.00;100918.25;5133649;27;20039;-77
2021/10/18 04:52:41;;;;;;;40.33;22.95;;;;;;;6.42;100.00;100908.81;5133818;27;20047;-77
2021/10/18 04:55:10;;;;;;;35.25;21.42;;;;;;;6.53;100.00;100905.78;5133451;27;20096;-77
2021/10/18 04:57:50;;;;;;;39.22;22.35;;;;;;;6.58;100.00;100917.13;5133755;27;20039;-74
2021/10/18 05:00:18;;;;;;;37.28;21.05;;;;;;;6.49;100.00;100917.44;5133746;27;20043;-75
2021/10/18 05:02:46;;;;;;;38.65;21.13;;;;;;;6.40;100.00;100912.44;5133721;27;20395;-74
2021/10/18 05:05:16;;;;;;;34.55;20.80;;;;;;;6.51;100.00;100912.94;5133383;27;20039;-78
2021/10/18 05:07:44;;;;;;;37.25;21.48;;;;;;;6.49;100.00;100914.78;5133443;27;20043;-75
2021/10/18 05:10:14;;;;;;;39.03;21.70;;;;;;;6.37;100.00;100920.44;5133228;27;20047;-77
2021/10/18 05:12:43;;;;;;;38.17;21.27;;;;;;;6.38;100.00;100919.56;5133635;27;20034;-75
2021/10/18 05:15:11;;;;;;;34.97;21.20;;;;;;;6.55;100.00;100930.47;5133084;27;20043;-75
2021/10/18 05:17:39;;;;;;;37.03;20.50;;;;;;;6.57;100.00;100926.88;5133487;27;20047;-75
2021/10/18 05:20:08;;;;;;;39.97;20.90;;;;;;;6.65;100.00;100933.69;5133043;27;20094;-76
2021/10/18 05:22:38;;;;;;;37.97;21.38;;;;;;;6.47;100.00;100932.53;5133269;27;20066;-75
2021/10/18 05:25:08;;;;;;;37.85;21.42;;;;;;;6.29;100.00;100939.28;5133121;27;20061;-76
2021/10/18 05:27:37;;;;;;;37.95;21.70;;;;;;;6.38;100.00;100941.63;5133353;27;20073;-79
2021/10/18 05:30:10;;;;;;;36.95;21.15;;;;;;;6.59;100.00;100946.22;5132840;27;20054;-79
2021/10/18 05:32:39;;;;;;;43.70;22.65;;;;;;;6.57;100.00;100939.25;5133205;27;20120;-76
2021/10/18 05:35:11;;;;;;;41.42;22.05;;;;;;;6.58;100.00;100939.19;5132802;27;20045;-75
2021/10/18 05:37:44;;;;;;;41.30;22.08;;;;;;;6.46;100.00;100946.66;5133115;27;20388;-73
2021/10/18 05:40:15;;;;;;;37.15;21.55;;;;;;;6.39;100.00;100946.00;5132548;27;20395;-74
2021/10/18 05:42:43;;;;;;;35.70;21.42;;;;;;;6.35;100.00;100943.50;5132558;27;20039;-75
2021/10/18 05:45:12;;;;;;;36.83;22.10;;;;;;;6.42;100.00;100947.69;5132133;27;20861;-74
2021/10/18 05:47:54;;;;;;;36.78;20.70;;;;;;;6.46;100.00;100949.31;5132610;27;20070;-74
2021/10/18 05:50:23;;;;;;;37.50;20.98;;;;;;;6.54;100.00;100955.22;5132549;27;20064;-75
2021/10/18 05:52:53;;;;;;;41.33;21.60;;;;;;;6.64;100.00;100958.44;5132632;28;20043;-76
2021/10/18 05:55:22;;;;;;;39.30;21.45;;;;;;;6.73;100.00;100976.72;5133057;27;20051;-71
2021/10/18 05:57:53;;;;;;;36.13;21.48;;;;;;;6.78;100.00;100969.50;5132896;27;20432;-70
2021/10/18 06:00:22;;;;;;;40.13;22.13;;;;;;;6.87;100.00;100975.34;5132679;27;20046;-71
2021/10/18 06:02:51;;;;;;;38.15;20.50;;;;;;;6.95;100.00;100984.81;5132416;27;20130;-70
2021/10/18 06:05:20;;;;;;;35.20;21.30;;;;;;;7.03;100.00;100981.00;5132462;27;20039;-70
2021/10/18 06:07:48;;;;;;;35.10;20.42;;;;;;;7.11;100.00;100989.56;5132509;27;20150;-72
2021/10/18 06:10:20;;;;;;;35.35;20.85;;;;;;;7.15;100.00;100985.91;5132718;27;20044;-72
2021/10/18 06:12:48;;;;;;;33.17;20.30;;;;;;;7.23;100.00;100985.59;5132272;27;20043;-71
2021/10/18 06:15:18;;;;;;;39.13;20.77;;;;;;;7.27;100.00;100995.22;5132303;27;20047;-71
2021/10/18 06:17:46;;;;;;;35.92;19.42;;;;;;;7.35;100.00;100997.59;5132472;27;20035;-71
2021/10/18 06:20:15;;;;;;;32.50;18.77;;;;;;;7.42;100.00;100996.44;5132296;27;20114;-69
2021/10/18 06:22:43;;;;;;;35.92;21.20;;;;;;;7.48;100.00;101004.22;5134162;27;20465;-71
2021/10/18 06:25:12;;;;;;;36.20;21.40;;;;;;;7.55;100.00;101007.53;5132666;27;20114;-71
2021/10/18 06:27:41;;;;;;;36.55;19.77;;;;;;;7.61;100.00;101009.94;5131007;28;20113;-71
2021/10/18 06:30:10;;;;;;;34.83;20.48;;;;;;;7.68;100.00;101016.78;5132172;27;20502;-73
2021/10/18 06:32:39;;;;;;;37.90;19.90;;;;;;;7.72;100.00;101024.59;5132535;27;20051;-72
2021/10/18 06:35:08;;;;;;;34.40;19.83;;;;;;;7.80;100.00;101021.63;5132549;27;20137;-72
2021/10/18 06:37:36;;;;;;;39.53;18.67;;;;;;;7.86;100.00;101032.03;5136256;27;20035;-70
2021/10/18 06:40:06;;;;;;;35.88;18.27;;;;;;;7.92;100.00;101026.50;5135775;27;20089;-69
2021/10/18 06:42:34;;;;;;;38.88;19.30;;;;;;;7.99;100.00;101033.31;5136115;27;20043;-72
2021/10/18 06:45:04;;;;;;;35.17;18.90;;;;;;;8.06;100.00;101036.63;5135734;27;20047;-72
2021/10/18 06:47:32;;;;;;;31.10;17.75;;;;;;;8.14;100.00;101025.69;5135992;27;20046;-72
2021/10/18 06:50:01;;;;;;;38.38;20.17;;;;;;;8.23;100.00;101031.53;5135689;27;20428;-72
2021/10/18 06:52:32;;;;;;;31.45;18.02;;;;;;;8.31;100.00;101032.13;5135801;27;20039;-71
2021/10/18 06:55:01;;;;;;;32.50;18.17;;;;;;;8.39;100.00;101041.59;5135989;27;20039;-72
2021/10/18 06:57:29;;;;;;;33.90;16.52;;;;;;;8.47;100.00;101043.03;5135742;27;20043;-70
2021/10/18 06:59:58;;;;;;;32.65;15.70;;;;;;;8.50;100.00;101045.59;5135352;27;20043;-72
2021/10/18 07:02:27;;;;;;;29.95;17.15;;;;;;;8.50;100.00;101050.91;5135467;27;20443;-72
2021/10/18 07:04:56;;;;;;;27.70;15.20;;;;;;;8.53;100.00;101045.47;5135124;27;20459;-71
2021/10/18 07:07:26;;;;;;;26.30;13.95;;;;;;;8.53;100.00;101050.78;5135215;27;20138;-72
2021/10/18 07:09:59;;;;;;;24.60;15.07;;;;;;;8.55;100.00;101054.25;5135340;27;20394;-71
2021/10/18 07:12:29;;;;;;;30.45;15.75;;;;;;;8.58;100.00;101061.22;5135657;27;20046;-71
2021/10/18 07:14:58;;;;;;;26.90;15.32;;;;;;;8.63;100.00;101055.75;5135548;27;20062;-71
2021/10/18 07:17:28;;;;;;;26.73;14.95;;;;;;;8.71;100.00;101059.84;5136706;27;20118;-71
2021/10/18 07:19:58;;;;;;;27.45;14.93;;;;;;;8.74;100.00;101070.34;5135173;27;20046;-70
2021/10/18 07:22:30;;;;;;;29.42;16.90;;;;;;;8.92;100.00;101067.88;5134927;27;20039;-69
2021/10/18 07:24:58;;;;;;;27.92;15.63;;;;;;;9.13;100.00;101059.88;5134268;27;20039;-76
2021/10/18 07:27:27;;;;;;;29.58;16.20;;;;;;;9.29;100.00;101067.25;5134484;27;20403;-72
2021/10/18 07:29:56;;;;;;;29.15;17.33;;;;;;;9.34;100.00;101070.56;5134982;27;20040;-72
2021/10/18 07:32:25;;;;;;;35.35;18.35;;;;;;;9.42;100.00;101071.09;5134628;27;20055;-72
2021/10/18 07:34:56;;;;;;;35.42;17.45;;;;;;;9.38;100.00;101073.06;5135103;27;20040;-72
2021/10/18 07:37:27;;;;;;;34.45;19.15;;;;;;;9.41;100.00;101074.72;5134542;27;20110;-72
2021/10/18 07:39:56;;;;;;;38.05;19.67;;;;;;;9.56;100.00;101067.88;5134840;27;20043;-72
2021/10/18 07:42:25;;;;;;;37.88;19.45;;;;;;;9.56;100.00;101071.41;5134359;27;20047;-72
2021/10/18 07:44:54;;;;;;;43.90;19.95;;;;;;;9.59;100.00;101070.41;5134878;27;20445;-72
2021/10/18 07:47:22;;;;;;;31.00;19.42;;;;;;;9.67;100.00;101063.81;5133612;27;20521;-72
2021/10/18 07:49:50;;;;;;;37.28;20.55;;;;;;;9.43;100.00;101064.84;5134453;27;20129;-72
2021/10/18 07:52:21;;;;;;;35.08;20.52;;;;;;;9.50;100.00;101061.00;5134321;27;20239;-72
2021/10/18 07:54:53;;;;;;;38.53;20.90;;;;;;;9.74;99.71;101059.91;5134479;27;20504;-72
2021/10/18 07:57:22;;;;;;;38.67;20.23;;;;;;;9.71;100.00;101069.84;5134294;27;20047;-72
2021/10/18 07:59:50;;;;;;;36.33;19.05;;;;;;;9.74;100.00;101078.56;5134377;27;20411;-72
2021/10/18 08:02:19;;;;;;;41.40;17.70;;;;;;;9.88;99.54;101083.31;5134124;27;20043;-71
2021/10/18 08:04:47;;;;;;;35.67;19.13;;;;;;;9.91;99.47;101080.50;5134529;27;20476;-71
2021/10/18 08:07:26;;;;;;;36.85;19.05;;;;;;;9.98;98.98;101079.31;5134112;27;20127;-71
2021/10/18 08:09:56;;;;;;;36.97;18.75;;;;;;;10.04;98.39;101075.50;5134222;27;20055;-71
2021/10/18 08:12:24;;;;;;;36.00;18.42;;;;;;;10.20;97.91;101068.53;5133856;27;20380;-71
2021/10/18 08:14:52;;;;;;;31.08;17.60;;;;;;;10.32;97.03;101070.66;5134198;27;20039;-72
2021/10/18 08:17:21;;;;;;;30.63;17.23;;;;;;;10.41;96.51;101074.72;5134091;27;20055;-72
2021/10/18 08:19:49;;;;;;;34.95;17.58;;;;;;;10.46;96.09;101077.19;5134189;27;20122;-72
2021/10/18 08:22:17;;;;;;;35.15;15.75;;;;;;;10.50;95.59;101071.59;5133710;27;20095;-72
2021/10/18 08:24:47;;;;;;;27.55;14.75;;;;;;;10.65;92.85;101078.03;5134308;27;20039;-72
2021/10/18 08:27:15;;;;;;;27.70;16.52;;;;;;;10.72;93.28;101082.16;5133619;27;20047;-72
2021/10/18 08:29:58;;;;;;;;;;;;;;;10.71;92.38;101075.09;5134583;27;20077;-72
2021/10/18 08:32:27;;;;;;;30.58;14.93;;;;;;;11.02;90.10;101074.47;5132143;27;19938;-71
2021/10/18 08:34:57;;;;;;;23.35;12.15;;;;;;;11.19;87.46;101081.63;5133653;27;20039;-72
2021/10/18 08:38:15;;;;;;;22.77;13.90;;;;;;;11.18;88.02;101075.41;5133489;27;20075;-72
2021/10/18 08:40:15;;;;;;;24.00;13.60;;;;;;;11.29;86.92;101077.59;5133239;27;20035;-71
2021/10/18 08:42:54;;;;;;;21.42;13.55;;;;;;;11.30;86.60;101083.78;5133577;27;20452;-72
2021/10/18 08:45:23;;;;;;;25.20;14.07;;;;;;;11.36;87.00;101081.66;5132921;27;20488;-72
2021/10/18 08:47:54;;;;;;;28.75;14.85;;;;;;;11.32;87.66;101082.78;5132945;27;20039;-72
2021/10/18 08:50:23;;;;;;;26.88;14.20;;;;;;;11.42;87.43;101084.03;5132759;27;20548;-72
2021/10/18 08:52:52;;;;;;;24.50;13.45;;;;;;;11.57;85.81;101081.50;5132546;27;20047;-71
2021/10/18 08:55:22;;;;;;;22.75;12.15;;;;;;;11.73;84.65;101075.31;5132546;27;20132;-72
2021/10/18 08:57:50;;;;;;;24.05;11.68;;;;;;;11.72;83.23;101078.91;5131967;27;20075;-72
2021/10/18 09:00:39;;;;;;;20.77;11.80;;;;;;;11.62;84.87;101075.00;5132825;27;20039;-72
2021/10/18 09:03:17;;;;;;;;;;;;;;;11.73;83.61;101075.31;5133388;27;20050;-73
2021/10/18 09:05:47;;;;;;;22.13;10.88;;;;;;;11.83;82.95;101072.19;5133174;27;19919;-72
2021/10/18 09:08:35;;;;;;;20.45;10.18;;;;;;;12.03;81.54;101080.03;5132731;27;20118;-72
2021/10/18 09:11:07;;;;;;;15.95;9.38;;;;;;;11.92;81.76;101082.41;5132779;27;20047;-72
2021/10/18 09:13:43;;;;;;;20.40;10.30;;;;;;;11.92;82.68;101082.41;5133417;27;20087;-72
2021/10/18 09:16:21;;;;;;;18.23;9.40;;;;;;;12.02;82.25;101081.81;5133113;27;20340;-72
2021/10/18 09:18:58;;;;;;;15.88;9.13;;;;;;;12.14;81.99;101082.13;5133159;27;20125;-72
2021/10/18 09:21:32;;;;;;;18.02;9.73;;;;;;;12.19;81.23;101083.63;5132670;27;20043;-72
2021/10/18 09:24:02;;;;;;;17.92;9.98;;;;;;;11.94;83.05;101078.69;5132609;27;20035;-73
2021/10/18 09:26:33;;;;;;;14.32;9.75;;;;;;;11.90;83.34;101081.63;5133143;27;20039;-72
2021/10/18 09:29:08;;;;;;;16.95;9.45;;;;;;;11.93;83.22;101081.44;5132904;27;20460;-72
2021/10/18 09:31:37;;;;;;;18.70;9.65;;;;;;;11.89;84.16;101078.09;5132822;27;20061;-72
2021/10/18 09:34:08;;;;;;;21.88;9.65;;;;;;;11.84;83.63;101082.78;5132438;27;20067;-71
2021/10/18 09:36:36;;;;;;;17.77;8.70;;;;;;;11.95;82.24;101076.88;5133108;27;20049;-71
2021/10/18 09:39:19;;;;;;;14.23;7.90;;;;;;;11.84;82.45;101080.13;5132752;27;20131;-71
2021/10/18 09:41:59;;;;;;;13.05;6.43;;;;;;;12.09;79.15;101071.69;5132866;27;20070;-72
2021/10/18 09:44:58;;;;;;;14.52;7.80;;;;;;;12.16;80.51;101077.53;5132626;27;20053;-72
2021/10/18 09:48:01;;;;;;;10.90;6.20;;;;;;;12.27;76.80;101078.72;5132538;27;20122;-72
2021/10/18 10:51:18;;;;;;;9.68;4.82;;;;;;;12.26;68.73;101060.09;5135425;27;20412;-72
2021/10/18 10:53:53;;;;;;;10.57;5.07;;;;;;;12.33;68.08;101062.31;5135924;27;20392;-72
2021/10/18 10:56:28;;;;;;;11.82;5.82;;;;;;;12.26;69.90;101054.72;5135634;27;20138;-71
2021/10/18 10:59:07;;;;;;;11.95;5.07;;;;;;;12.25;69.26;101059.19;5135420;27;20067;-72
2021/10/18 11:01:57;;;;;;;8.88;4.47;;;;;;;12.13;67.85;101061.66;5135185;27;20540;-72
2021/10/18 11:04:49;;;;;;;11.52;4.70;;;;;;;12.02;68.88;101063.13;5133783;27;20487;-72
2021/10/18 11:07:23;;;;;;;13.02;5.40;;;;;;;11.99;69.12;101057.06;5135525;27;20559;-73
2021/10/18 11:09:53;;;;;;;12.48;5.25;;;;;;;11.95;69.84;101067.06;5135351;27;20047;-73
2021/10/18 11:12:26;;;;;;;10.27;5.47;;;;;;;12.11;70.08;101063.56;5135482;27;20055;-70
2021/10/18 11:15:01;;;;;;;12.20;6.00;;;;;;;12.32;69.46;101059.72;5135414;27;20403;-72
2021/10/18 11:17:30;;;;;;;14.77;6.32;;;;;;;12.39;70.74;101050.44;5135218;27;20472;-72
2021/10/18 11:20:02;;;;;;;9.68;5.72;;;;;;;12.45;69.55;101050.09;5135327;27;20514;-72
2021/10/18 11:22:35;;;;;;;11.25;5.85;;;;;;;12.43;68.94;101057.31;5133519;27;20051;-72
2021/10/18 11:25:09;;;;;;;12.70;5.57;;;;;;;12.52;67.49;101056.81;5135102;27;20039;-72
2021/10/18 11:27:39;;;;;;;8.70;5.40;;;;;;;12.53;66.11;101055.00;5135178;27;20157;-72
2021/10/18 11:30:11;;;;;;;7.30;5.10;;;;;;;12.41;65.24;101056.56;5135353;27;20050;-72
2021/10/18 11:32:39;;;;;;;9.85;5.38;;;;;;;12.14;65.83;101044.69;5135248;27;20055;-72
2021/10/18 11:35:16;;;;;;;8.52;5.00;;;;;;;12.06;67.82;101046.91;5135280;27;20043;-72
2021/10/18 11:37:49;;;;;;;10.55;5.00;;;;;;;12.08;68.30;101045.03;5135299;27;20064;-71
2021/10/18 11:40:19;;;;;;;11.98;5.07;;;;;;;12.10;68.19;101038.63;5135201;27;20043;-72
2021/10/18 11:42:49;;;;;;;9.48;5.47;;;;;;;12.42;68.19;101047.56;5134935;27;20035;-72
2021/10/18 11:45:19;;;;;;;9.00;5.75;;;;;;;12.81;67.54;101043.59;5134647;27;20403;-73
2021/10/18 11:47:47;;;;;;;12.43;5.72;;;;;;;12.94;67.70;101041.97;5135287;27;20073;-71
2021/10/18 11:50:20;;;;;;;10.38;6.00;;;;;;;13.10;67.03;101037.44;5134835;27;20043;-71
2021/10/18 11:52:52;;;;;;;12.25;5.35;;;;;;;13.03;66.53;101037.91;5134786;27;20063;-70
2021/10/18 11:55:23;;;;;;;9.93;5.50;;;;;;;13.29;64.75;101047.13;5134628;27;20046;-73
2021/10/18 11:57:53;;;;;;;10.60;5.85;;;;;;;13.18;65.17;101043.22;5134324;27;20418;-72
2021/10/18 12:00:25;;;;;;;11.13;5.70;;;;;;;13.27;64.71;101041.84;5134050;27;20100;-72
2021/10/18 12:02:58;;;;;;;11.85;5.55;;;;;;;13.38;64.98;101047.44;5134435;27;20047;-71
2021/10/18 12:05:36;;;;;;;10.48;6.28;;;;;;;13.33;64.68;101054.03;5134196;27;20035;-72
2021/10/18 12:08:05;;;;;;;10.80;5.60;;;;;;;13.41;65.91;101051.75;5133574;27;20047;-72
2021/10/18 12:10:35;;;;;;;10.68;5.53;;;;;;;13.49;65.10;101044.13;5133252;27;20108;-72
2021/10/18 12:13:22;;;;;;;9.95;5.18;;;;;;;13.55;65.76;101035.72;5133430;27;20074;-71
2021/10/18 12:15:58;;;;;;;9.35;5.30;;;;;;;13.48;66.20;101039.72;5133199;27;20122;-71
2021/10/18 12:18:29;;;;;;;10.27;6.10;;;;;;;13.30;66.38;101038.13;5133205;27;20039;-72
2021/10/18 12:21:02;;;;;;;10.75;6.10;;;;;;;13.25;66.17;101034.88;5133492;27;20070;-71
2021/10/18 12:23:33;;;;;;;13.05;5.50;;;;;;;13.15;66.17;101038.06;5133673;27;20456;-71
2021/10/18 12:26:06;;;;;;;11.68;5.43;;;;;;;13.15;66.25;101032.69;5133960;27;20047;-72
2021/10/18 12:28:42;;;;;;;9.50;4.93;;;;;;;13.16;66.18;101042.44;5133505;27;20068;-72